sensor_id;sensor_type;location;lat;lon;timestamp;P1;durP1;ratioP1;P2;durP2;ratioP2
20142;SDS011;10509;46.476;7.134;2022-12-18T00:01:42;2.80;;;2.40;;
20142;SDS011;10509;46.476;7.134;2022-12-18T00:04:14;2.80;;;2.30;;
20142;SDS011;10509;46.476;7.134;2022-12-18T00:06:41;2.30;;;2.00;;
20142;SDS011;10509;46.476;7.134;2022-12-18T00:09:07;2.43;;;1.93;;
20142;SDS011;10509;46.476;7.134;2022-12-18T00:11:33;2.20;;;1.53;;
20142;SDS011;10509;46.476;7.134;2022-12-18T00:13:59;2.20;;;1.67;;
20142;SDS011;10509;46.476;7.134;2022-12-18T00:16:26;2.57;;;2.00;;
20142;SDS011;10509;46.476;7.134;2022-12-18T00:18:53;2.57;;;2.17;;
20142;SDS011;10509;46.476;7.134;2022-12-18T00:21:19;2.70;;;1.70;;
20142;SDS011;10509;46.476;7.134;2022-12-18T00:23:46;2.77;;;1.70;;
20142;SDS011;10509;46.476;7.134;2022-12-18T00:26:16;2.33;;;2.07;;
20142;SDS011;10509;46.476;7.134;2022-12-18T00:28:43;2.43;;;2.03;;
20142;SDS011;10509;46.476;7.134;2022-12-18T00:31:13;3.17;;;2.00;;
20142;SDS011;10509;46.476;7.134;2022-12-18T00:33:40;3.50;;;2.73;;
20142;SDS011;10509;46.476;7.134;2022-12-18T00:36:11;2.50;;;2.10;;
20142;SDS011;10509;46.476;7.134;2022-12-18T00:38:37;3.03;;;2.53;;
20142;SDS011;10509;46.476;7.134;2022-12-18T00:41:03;2.50;;;2.30;;
20142;SDS011;10509;46.476;7.134;2022-12-18T00:43:29;4.23;;;1.90;;
20142;SDS011;10509;46.476;7.134;2022-12-18T00:45:55;3.13;;;2.00;;
20142;SDS011;10509;46.476;7.134;2022-12-18T00:48:21;2.43;;;2.03;;
20142;SDS011;10509;46.476;7.134;2022-12-18T00:50:48;2.83;;;2.10;;
20142;SDS011;10509;46.476;7.134;2022-12-18T00:53:14;2.77;;;2.10;;
20142;SDS011;10509;46.476;7.134;2022-12-18T00:55:40;2.47;;;1.97;;
20142;SDS011;10509;46.476;7.134;2022-12-18T00:58:07;3.20;;;1.70;;
20142;SDS011;10509;46.476;7.134;2022-12-18T01:00:33;2.77;;;2.10;;
20142;SDS011;10509;46.476;7.134;2022-12-18T01:02:59;2.20;;;2.00;;
20142;SDS011;10509;46.476;7.134;2022-12-18T01:05:25;3.47;;;2.10;;
20142;SDS011;10509;46.476;7.134;2022-12-18T01:07:51;2.90;;;1.97;;
20142;SDS011;10509;46.476;7.134;2022-12-18T01:10:17;2.57;;;2.00;;
20142;SDS011;10509;46.476;7.134;2022-12-18T01:12:43;2.77;;;1.67;;
20142;SDS011;10509;46.476;7.134;2022-12-18T01:15:09;3.93;;;2.33;;
20142;SDS011;10509;46.476;7.134;2022-12-18T01:17:36;3.47;;;1.80;;
20142;SDS011;10509;46.476;7.134;2022-12-18T01:20:02;2.63;;;2.43;;
20142;SDS011;10509;46.476;7.134;2022-12-18T01:22:28;3.40;;;2.17;;
20142;SDS011;10509;46.476;7.134;2022-12-18T01:24:54;3.20;;;1.80;;
20142;SDS011;10509;46.476;7.134;2022-12-18T01:27:20;3.50;;;2.07;;
20142;SDS011;10509;46.476;7.134;2022-12-18T01:29:46;2.47;;;1.67;;
20142;SDS011;10509;46.476;7.134;2022-12-18T01:32:12;2.33;;;1.70;;
20142;SDS011;10509;46.476;7.134;2022-12-18T01:34:38;2.60;;;2.00;;
20142;SDS011;10509;46.476;7.134;2022-12-18T01:37:04;3.33;;;1.60;;
20142;SDS011;10509;46.476;7.134;2022-12-18T01:39:30;1.50;;;1.40;;
20142;SDS011;10509;46.476;7.134;2022-12-18T01:41:57;4.07;;;1.87;;
20142;SDS011;10509;46.476;7.134;2022-12-18T01:50:30;3.30;;;2.37;;
20142;SDS011;10509;46.476;7.134;2022-12-18T01:52:56;2.80;;;2.30;;
20142;SDS011;10509;46.476;7.134;2022-12-18T01:55:24;3.73;;;2.10;;
20142;SDS011;10509;46.476;7.134;2022-12-18T01:57:55;2.40;;;2.00;;
20142;SDS011;10509;46.476;7.134;2022-12-18T02:00:22;3.20;;;2.03;;
20142;SDS011;10509;46.476;7.134;2022-12-18T02:02:48;3.17;;;2.23;;
20142;SDS011;10509;46.476;7.134;2022-12-18T02:05:18;2.17;;;1.90;;
20142;SDS011;10509;46.476;7.134;2022-12-18T02:10:30;2.83;;;1.83;;
20142;SDS011;10509;46.476;7.134;2022-12-18T02:13:02;3.90;;;1.40;;
20142;SDS011;10509;46.476;7.134;2022-12-18T02:15:36;1.77;;;1.60;;
20142;SDS011;10509;46.476;7.134;2022-12-18T02:18:11;3.97;;;1.87;;
20142;SDS011;10509;46.476;7.134;2022-12-18T02:26:18;3.93;;;2.00;;
20142;SDS011;10509;46.476;7.134;2022-12-18T02:28:52;3.57;;;1.80;;
20142;SDS011;10509;46.476;7.134;2022-12-18T02:31:21;1.80;;;1.60;;
20142;SDS011;10509;46.476;7.134;2022-12-18T02:33:49;1.80;;;1.40;;
20142;SDS011;10509;46.476;7.134;2022-12-18T02:36:16;2.20;;;1.70;;
20142;SDS011;10509;46.476;7.134;2022-12-18T02:38:44;2.77;;;1.67;;
20142;SDS011;10509;46.476;7.134;2022-12-18T02:41:11;1.60;;;1.40;;
20142;SDS011;10509;46.476;7.134;2022-12-18T02:43:38;2.53;;;1.63;;
20142;SDS011;10509;46.476;7.134;2022-12-18T02:46:23;1.73;;;1.50;;
20142;SDS011;10509;46.476;7.134;2022-12-18T02:48:50;2.63;;;1.43;;
20142;SDS011;10509;46.476;7.134;2022-12-18T02:51:23;2.83;;;1.37;;
20142;SDS011;10509;46.476;7.134;2022-12-18T02:54:02;1.50;;;1.30;;
20142;SDS011;10509;46.476;7.134;2022-12-18T02:56:35;3.17;;;1.23;;
20142;SDS011;10509;46.476;7.134;2022-12-18T03:04:25;1.50;;;1.20;;
20142;SDS011;10509;46.476;7.134;2022-12-18T03:06:56;1.50;;;1.33;;
20142;SDS011;10509;46.476;7.134;2022-12-18T03:09:33;2.90;;;1.20;;
20142;SDS011;10509;46.476;7.134;2022-12-18T03:12:05;1.70;;;1.27;;
20142;SDS011;10509;46.476;7.134;2022-12-18T03:14:49;1.27;;;1.10;;
20142;SDS011;10509;46.476;7.134;2022-12-18T03:17:17;1.23;;;1.10;;
20142;SDS011;10509;46.476;7.134;2022-12-18T03:19:45;1.47;;;1.10;;
20142;SDS011;10509;46.476;7.134;2022-12-18T03:22:11;1.93;;;1.20;;
20142;SDS011;10509;46.476;7.134;2022-12-18T03:24:39;1.20;;;1.10;;
20142;SDS011;10509;46.476;7.134;2022-12-18T03:27:06;1.93;;;1.10;;
20142;SDS011;10509;46.476;7.134;2022-12-18T03:29:35;2.87;;;1.40;;
20142;SDS011;10509;46.476;7.134;2022-12-18T03:32:05;1.70;;;1.30;;
20142;SDS011;10509;46.476;7.134;2022-12-18T03:34:34;2.60;;;1.73;;
20142;SDS011;10509;46.476;7.134;2022-12-18T03:37:01;3.13;;;1.50;;
20142;SDS011;10509;46.476;7.134;2022-12-18T03:39:27;2.37;;;1.40;;
20142;SDS011;10509;46.476;7.134;2022-12-18T03:46:58;1.53;;;1.10;;
20142;SDS011;10509;46.476;7.134;2022-12-18T03:49:33;1.30;;;1.20;;
20142;SDS011;10509;46.476;7.134;2022-12-18T03:54:26;2.17;;;1.70;;
20142;SDS011;10509;46.476;7.134;2022-12-18T03:56:55;2.10;;;1.53;;
20142;SDS011;10509;46.476;7.134;2022-12-18T03:59:22;2.17;;;1.47;;
20142;SDS011;10509;46.476;7.134;2022-12-18T04:01:49;2.47;;;1.23;;
20142;SDS011;10509;46.476;7.134;2022-12-18T04:04:16;1.70;;;1.40;;
20142;SDS011;10509;46.476;7.134;2022-12-18T04:06:43;2.10;;;1.50;;
20142;SDS011;10509;46.476;7.134;2022-12-18T04:09:10;3.80;;;1.67;;
20142;SDS011;10509;46.476;7.134;2022-12-18T04:11:36;2.50;;;1.20;;
20142;SDS011;10509;46.476;7.134;2022-12-18T04:14:02;1.47;;;1.37;;
20142;SDS011;10509;46.476;7.134;2022-12-18T04:16:28;3.40;;;1.80;;
20142;SDS011;10509;46.476;7.134;2022-12-18T04:18:54;2.17;;;1.60;;
20142;SDS011;10509;46.476;7.134;2022-12-18T04:21:20;2.50;;;1.60;;
20142;SDS011;10509;46.476;7.134;2022-12-18T04:23:47;3.10;;;1.57;;
20142;SDS011;10509;46.476;7.134;2022-12-18T04:26:13;2.60;;;1.70;;
20142;SDS011;10509;46.476;7.134;2022-12-18T04:28:39;2.10;;;1.30;;
20142;SDS011;10509;46.476;7.134;2022-12-18T04:31:05;4.43;;;1.30;;
20142;SDS011;10509;46.476;7.134;2022-12-18T04:33:31;2.63;;;1.50;;
20142;SDS011;10509;46.476;7.134;2022-12-18T04:35:57;2.80;;;1.33;;
20142;SDS011;10509;46.476;7.134;2022-12-18T04:38:23;2.63;;;1.20;;
20142;SDS011;10509;46.476;7.134;2022-12-18T04:40:49;1.97;;;1.30;;
20142;SDS011;10509;46.476;7.134;2022-12-18T04:43:15;1.90;;;1.50;;
20142;SDS011;10509;46.476;7.134;2022-12-18T04:45:41;4.17;;;1.50;;
20142;SDS011;10509;46.476;7.134;2022-12-18T04:48:08;1.87;;;1.47;;
20142;SDS011;10509;46.476;7.134;2022-12-18T04:50:34;2.00;;;1.43;;
20142;SDS011;10509;46.476;7.134;2022-12-18T04:53:00;4.57;;;1.70;;
20142;SDS011;10509;46.476;7.134;2022-12-18T04:55:26;2.37;;;1.50;;
20142;SDS011;10509;46.476;7.134;2022-12-18T04:57:52;2.83;;;1.67;;
20142;SDS011;10509;46.476;7.134;2022-12-18T05:00:18;1.67;;;1.57;;
20142;SDS011;10509;46.476;7.134;2022-12-18T05:02:44;2.83;;;1.87;;
20142;SDS011;10509;46.476;7.134;2022-12-18T05:05:11;1.87;;;1.17;;
20142;SDS011;10509;46.476;7.134;2022-12-18T05:07:37;1.87;;;1.30;;
20142;SDS011;10509;46.476;7.134;2022-12-18T05:10:06;4.13;;;1.43;;
20142;SDS011;10509;46.476;7.134;2022-12-18T05:12:32;3.13;;;1.43;;
20142;SDS011;10509;46.476;7.134;2022-12-18T05:14:58;2.57;;;1.23;;
20142;SDS011;10509;46.476;7.134;2022-12-18T05:17:24;2.37;;;1.50;;
20142;SDS011;10509;46.476;7.134;2022-12-18T05:19:50;3.23;;;1.60;;
20142;SDS011;10509;46.476;7.134;2022-12-18T05:22:16;3.37;;;1.53;;
20142;SDS011;10509;46.476;7.134;2022-12-18T05:24:42;2.20;;;1.60;;
20142;SDS011;10509;46.476;7.134;2022-12-18T05:27:08;4.23;;;1.47;;
20142;SDS011;10509;46.476;7.134;2022-12-18T05:29:34;1.80;;;0.90;;
20142;SDS011;10509;46.476;7.134;2022-12-18T05:32:00;3.40;;;1.30;;
20142;SDS011;10509;46.476;7.134;2022-12-18T05:34:26;2.37;;;1.30;;
20142;SDS011;10509;46.476;7.134;2022-12-18T05:36:52;4.93;;;1.50;;
20142;SDS011;10509;46.476;7.134;2022-12-18T05:39:18;2.20;;;1.40;;
20142;SDS011;10509;46.476;7.134;2022-12-18T05:41:44;1.60;;;1.30;;
20142;SDS011;10509;46.476;7.134;2022-12-18T05:44:11;1.40;;;1.30;;
20142;SDS011;10509;46.476;7.134;2022-12-18T05:46:37;2.40;;;1.27;;
20142;SDS011;10509;46.476;7.134;2022-12-18T05:49:03;1.60;;;1.50;;
20142;SDS011;10509;46.476;7.134;2022-12-18T05:51:29;2.20;;;1.60;;
20142;SDS011;10509;46.476;7.134;2022-12-18T05:53:56;1.63;;;1.47;;
20142;SDS011;10509;46.476;7.134;2022-12-18T05:56:22;2.97;;;1.47;;
20142;SDS011;10509;46.476;7.134;2022-12-18T05:58:51;2.30;;;1.90;;
20142;SDS011;10509;46.476;7.134;2022-12-18T06:01:19;2.70;;;1.40;;
20142;SDS011;10509;46.476;7.134;2022-12-18T06:03:45;1.57;;;1.30;;
20142;SDS011;10509;46.476;7.134;2022-12-18T06:06:18;2.00;;;1.70;;
20142;SDS011;10509;46.476;7.134;2022-12-18T06:08:45;2.60;;;2.00;;
20142;SDS011;10509;46.476;7.134;2022-12-18T06:11:11;3.20;;;2.00;;
20142;SDS011;10509;46.476;7.134;2022-12-18T06:13:38;5.47;;;2.03;;
20142;SDS011;10509;46.476;7.134;2022-12-18T06:16:04;4.77;;;2.00;;
20142;SDS011;10509;46.476;7.134;2022-12-18T06:18:31;2.67;;;2.00;;
20142;SDS011;10509;46.476;7.134;2022-12-18T06:20:57;3.90;;;3.50;;
20142;SDS011;10509;46.476;7.134;2022-12-18T06:23:24;3.67;;;3.17;;
20142;SDS011;10509;46.476;7.134;2022-12-18T06:25:50;3.00;;;1.50;;
20142;SDS011;10509;46.476;7.134;2022-12-18T06:28:16;2.10;;;1.90;;
20142;SDS011;10509;46.476;7.134;2022-12-18T06:30:45;2.70;;;2.20;;
20142;SDS011;10509;46.476;7.134;2022-12-18T06:33:11;2.63;;;2.23;;
20142;SDS011;10509;46.476;7.134;2022-12-18T06:35:37;2.73;;;1.70;;
20142;SDS011;10509;46.476;7.134;2022-12-18T06:38:04;4.30;;;3.43;;
20142;SDS011;10509;46.476;7.134;2022-12-18T06:40:30;15.17;;;10.70;;
20142;SDS011;10509;46.476;7.134;2022-12-18T06:42:56;10.40;;;8.27;;
20142;SDS011;10509;46.476;7.134;2022-12-18T06:45:23;29.03;;;19.20;;
20142;SDS011;10509;46.476;7.134;2022-12-18T06:47:49;18.00;;;15.07;;
20142;SDS011;10509;46.476;7.134;2022-12-18T06:50:15;8.27;;;6.63;;
20142;SDS011;10509;46.476;7.134;2022-12-18T06:52:41;3.53;;;3.23;;
20142;SDS011;10509;46.476;7.134;2022-12-18T06:55:09;3.87;;;3.10;;
20142;SDS011;10509;46.476;7.134;2022-12-18T06:57:35;4.37;;;3.57;;
20142;SDS011;10509;46.476;7.134;2022-12-18T07:00:02;5.77;;;5.23;;
20142;SDS011;10509;46.476;7.134;2022-12-18T07:02:28;3.67;;;3.27;;
20142;SDS011;10509;46.476;7.134;2022-12-18T07:04:54;7.67;;;6.03;;
20142;SDS011;10509;46.476;7.134;2022-12-18T07:07:20;6.03;;;5.40;;
20142;SDS011;10509;46.476;7.134;2022-12-18T07:09:46;4.00;;;3.00;;
20142;SDS011;10509;46.476;7.134;2022-12-18T07:12:14;3.60;;;3.03;;
20142;SDS011;10509;46.476;7.134;2022-12-18T07:14:40;4.00;;;3.60;;
20142;SDS011;10509;46.476;7.134;2022-12-18T07:17:06;5.30;;;3.30;;
20142;SDS011;10509;46.476;7.134;2022-12-18T07:19:33;5.70;;;5.20;;
20142;SDS011;10509;46.476;7.134;2022-12-18T07:21:59;3.73;;;3.20;;
20142;SDS011;10509;46.476;7.134;2022-12-18T07:24:25;3.33;;;3.03;;
20142;SDS011;10509;46.476;7.134;2022-12-18T07:26:51;3.20;;;2.97;;
20142;SDS011;10509;46.476;7.134;2022-12-18T07:29:17;4.60;;;3.60;;
20142;SDS011;10509;46.476;7.134;2022-12-18T07:31:43;4.80;;;4.13;;
20142;SDS011;10509;46.476;7.134;2022-12-18T07:34:10;4.93;;;3.43;;
20142;SDS011;10509;46.476;7.134;2022-12-18T07:36:36;4.43;;;3.50;;
20142;SDS011;10509;46.476;7.134;2022-12-18T07:39:02;3.80;;;2.80;;
20142;SDS011;10509;46.476;7.134;2022-12-18T07:41:28;3.10;;;2.80;;
20142;SDS011;10509;46.476;7.134;2022-12-18T07:43:55;4.73;;;4.33;;
20142;SDS011;10509;46.476;7.134;2022-12-18T07:46:21;7.00;;;6.40;;
20142;SDS011;10509;46.476;7.134;2022-12-18T07:48:47;5.63;;;5.07;;
20142;SDS011;10509;46.476;7.134;2022-12-18T07:51:13;4.00;;;3.60;;
20142;SDS011;10509;46.476;7.134;2022-12-18T07:53:39;4.37;;;4.00;;
20142;SDS011;10509;46.476;7.134;2022-12-18T07:56:09;4.77;;;4.37;;
20142;SDS011;10509;46.476;7.134;2022-12-18T07:58:35;5.20;;;3.77;;
20142;SDS011;10509;46.476;7.134;2022-12-18T08:01:08;5.90;;;4.87;;
20142;SDS011;10509;46.476;7.134;2022-12-18T08:03:35;3.10;;;2.30;;
20142;SDS011;10509;46.476;7.134;2022-12-18T08:06:01;6.47;;;5.80;;
20142;SDS011;10509;46.476;7.134;2022-12-18T08:08:28;6.00;;;5.20;;
20142;SDS011;10509;46.476;7.134;2022-12-18T08:10:55;4.17;;;3.70;;
20142;SDS011;10509;46.476;7.134;2022-12-18T08:13:21;6.27;;;4.77;;
20142;SDS011;10509;46.476;7.134;2022-12-18T08:16:04;3.73;;;3.33;;
20142;SDS011;10509;46.476;7.134;2022-12-18T08:18:31;3.77;;;3.33;;
20142;SDS011;10509;46.476;7.134;2022-12-18T08:20:57;3.47;;;2.97;;
20142;SDS011;10509;46.476;7.134;2022-12-18T08:23:23;4.50;;;3.70;;
20142;SDS011;10509;46.476;7.134;2022-12-18T08:25:49;4.83;;;4.43;;
20142;SDS011;10509;46.476;7.134;2022-12-18T08:28:16;10.03;;;9.13;;
20142;SDS011;10509;46.476;7.134;2022-12-18T08:30:42;5.20;;;4.43;;
20142;SDS011;10509;46.476;7.134;2022-12-18T08:33:08;5.30;;;4.90;;
20142;SDS011;10509;46.476;7.134;2022-12-18T08:35:34;5.10;;;4.60;;
20142;SDS011;10509;46.476;7.134;2022-12-18T08:38:01;5.33;;;4.93;;
20142;SDS011;10509;46.476;7.134;2022-12-18T08:40:28;6.33;;;5.47;;
20142;SDS011;10509;46.476;7.134;2022-12-18T08:42:54;5.17;;;4.10;;
20142;SDS011;10509;46.476;7.134;2022-12-18T08:45:39;5.47;;;3.97;;
20142;SDS011;10509;46.476;7.134;2022-12-18T08:48:05;4.10;;;3.47;;
20142;SDS011;10509;46.476;7.134;2022-12-18T08:50:31;4.43;;;3.50;;
20142;SDS011;10509;46.476;7.134;2022-12-18T08:52:57;4.43;;;4.03;;
20142;SDS011;10509;46.476;7.134;2022-12-18T08:55:23;4.90;;;4.40;;
20142;SDS011;10509;46.476;7.134;2022-12-18T08:57:49;5.13;;;4.63;;
20142;SDS011;10509;46.476;7.134;2022-12-18T09:00:16;5.40;;;4.87;;
20142;SDS011;10509;46.476;7.134;2022-12-18T09:02:42;4.17;;;3.83;;
20142;SDS011;10509;46.476;7.134;2022-12-18T09:05:08;5.53;;;3.83;;
20142;SDS011;10509;46.476;7.134;2022-12-18T09:07:35;4.97;;;3.20;;
20142;SDS011;10509;46.476;7.134;2022-12-18T09:10:01;6.43;;;4.70;;
20142;SDS011;10509;46.476;7.134;2022-12-18T09:12:27;5.93;;;5.40;;
20142;SDS011;10509;46.476;7.134;2022-12-18T09:14:53;6.20;;;5.70;;
20142;SDS011;10509;46.476;7.134;2022-12-18T09:17:19;7.70;;;5.83;;
20142;SDS011;10509;46.476;7.134;2022-12-18T09:19:45;28.33;;;19.30;;
20142;SDS011;10509;46.476;7.134;2022-12-18T09:22:11;10.17;;;9.20;;
20142;SDS011;10509;46.476;7.134;2022-12-18T09:24:37;8.77;;;5.93;;
20142;SDS011;10509;46.476;7.134;2022-12-18T09:27:03;9.03;;;8.13;;
20142;SDS011;10509;46.476;7.134;2022-12-18T09:29:29;20.63;;;15.63;;
20142;SDS011;10509;46.476;7.134;2022-12-18T09:31:55;14.67;;;12.17;;
20142;SDS011;10509;46.476;7.134;2022-12-18T09:34:21;5.83;;;3.90;;
20142;SDS011;10509;46.476;7.134;2022-12-18T09:36:47;7.53;;;5.30;;
20142;SDS011;10509;46.476;7.134;2022-12-18T09:39:13;7.97;;;7.20;;
20142;SDS011;10509;46.476;7.134;2022-12-18T09:41:52;7.83;;;7.03;;
20142;SDS011;10509;46.476;7.134;2022-12-18T09:44:27;9.80;;;7.03;;
20142;SDS011;10509;46.476;7.134;2022-12-18T09:47:03;5.93;;;3.43;;
20142;SDS011;10509;46.476;7.134;2022-12-18T09:49:59;6.40;;;5.80;;
20142;SDS011;10509;46.476;7.134;2022-12-18T09:52:35;6.83;;;5.10;;
20142;SDS011;10509;46.476;7.134;2022-12-18T09:55:05;5.37;;;4.87;;
20142;SDS011;10509;46.476;7.134;2022-12-18T09:57:34;4.50;;;4.10;;
20142;SDS011;10509;46.476;7.134;2022-12-18T10:00:20;6.03;;;4.03;;
20142;SDS011;10509;46.476;7.134;2022-12-18T10:02:47;5.23;;;4.40;;
20142;SDS011;10509;46.476;7.134;2022-12-18T10:05:14;5.30;;;4.80;;
20142;SDS011;10509;46.476;7.134;2022-12-18T10:10:38;5.40;;;4.00;;
20142;SDS011;10509;46.476;7.134;2022-12-18T10:18:35;6.00;;;3.30;;
20142;SDS011;10509;46.476;7.134;2022-12-18T10:21:10;4.13;;;2.97;;
20142;SDS011;10509;46.476;7.134;2022-12-18T10:23:59;5.07;;;3.77;;
20142;SDS011;10509;46.476;7.134;2022-12-18T10:26:26;4.23;;;3.17;;
20142;SDS011;10509;46.476;7.134;2022-12-18T10:28:52;5.10;;;3.43;;
20142;SDS011;10509;46.476;7.134;2022-12-18T10:31:20;4.60;;;4.20;;
20142;SDS011;10509;46.476;7.134;2022-12-18T10:33:46;3.77;;;3.20;;
20142;SDS011;10509;46.476;7.134;2022-12-18T10:36:12;3.30;;;2.40;;
20142;SDS011;10509;46.476;7.134;2022-12-18T10:38:38;4.30;;;2.60;;
20142;SDS011;10509;46.476;7.134;2022-12-18T10:41:06;3.23;;;2.50;;
20142;SDS011;10509;46.476;7.134;2022-12-18T10:43:37;3.27;;;2.87;;
20142;SDS011;10509;46.476;7.134;2022-12-18T10:48:39;5.37;;;4.53;;
20142;SDS011;10509;46.476;7.134;2022-12-18T10:51:06;5.37;;;4.97;;
20142;SDS011;10509;46.476;7.134;2022-12-18T10:53:33;4.90;;;4.50;;
20142;SDS011;10509;46.476;7.134;2022-12-18T10:56:00;3.83;;;3.53;;
20142;SDS011;10509;46.476;7.134;2022-12-18T11:01:03;2.33;;;2.13;;
20142;SDS011;10509;46.476;7.134;2022-12-18T11:03:34;3.00;;;2.70;;
20142;SDS011;10509;46.476;7.134;2022-12-18T11:08:32;3.90;;;3.60;;
20142;SDS011;10509;46.476;7.134;2022-12-18T11:10:59;4.10;;;3.70;;
20142;SDS011;10509;46.476;7.134;2022-12-18T11:13:26;4.67;;;3.43;;
20142;SDS011;10509;46.476;7.134;2022-12-18T11:15:52;4.20;;;3.60;;
20142;SDS011;10509;46.476;7.134;2022-12-18T11:18:28;4.30;;;4.00;;
20142;SDS011;10509;46.476;7.134;2022-12-18T11:21:06;5.70;;;5.30;;
20142;SDS011;10509;46.476;7.134;2022-12-18T11:23:32;3.90;;;3.50;;
20142;SDS011;10509;46.476;7.134;2022-12-18T11:25:59;3.77;;;3.37;;
20142;SDS011;10509;46.476;7.134;2022-12-18T11:33:34;3.23;;;2.93;;
20142;SDS011;10509;46.476;7.134;2022-12-18T11:36:02;2.43;;;2.10;;
20142;SDS011;10509;46.476;7.134;2022-12-18T11:38:30;4.23;;;2.20;;
20142;SDS011;10509;46.476;7.134;2022-12-18T11:40:59;4.03;;;3.10;;
20142;SDS011;10509;46.476;7.134;2022-12-18T11:43:33;3.73;;;3.20;;
20142;SDS011;10509;46.476;7.134;2022-12-18T11:46:02;4.00;;;3.60;;
20142;SDS011;10509;46.476;7.134;2022-12-18T11:48:30;4.20;;;3.80;;
20142;SDS011;10509;46.476;7.134;2022-12-18T11:50:59;3.57;;;2.60;;
20142;SDS011;10509;46.476;7.134;2022-12-18T11:53:26;3.17;;;2.90;;
20142;SDS011;10509;46.476;7.134;2022-12-18T12:06:31;14.73;;;13.53;;
20142;SDS011;10509;46.476;7.134;2022-12-18T12:17:03;3.93;;;3.20;;
20142;SDS011;10509;46.476;7.134;2022-12-18T12:39:28;7.90;;;7.30;;
20142;SDS011;10509;46.476;7.134;2022-12-18T12:41:56;3.30;;;3.00;;
20142;SDS011;10509;46.476;7.134;2022-12-18T12:44:47;3.90;;;3.60;;
20142;SDS011;10509;46.476;7.134;2022-12-18T12:47:16;3.73;;;3.40;;
20142;SDS011;10509;46.476;7.134;2022-12-18T12:49:43;3.97;;;2.90;;
20142;SDS011;10509;46.476;7.134;2022-12-18T12:52:14;4.43;;;3.30;;
20142;SDS011;10509;46.476;7.134;2022-12-18T12:54:40;4.83;;;3.20;;
20142;SDS011;10509;46.476;7.134;2022-12-18T12:57:15;3.77;;;3.33;;
20142;SDS011;10509;46.476;7.134;2022-12-18T13:02:33;4.37;;;3.70;;
20142;SDS011;10509;46.476;7.134;2022-12-18T13:12:51;4.60;;;3.50;;
20142;SDS011;10509;46.476;7.134;2022-12-18T13:17:59;5.63;;;4.10;;
20142;SDS011;10509;46.476;7.134;2022-12-18T13:20:35;5.10;;;4.70;;
20142;SDS011;10509;46.476;7.134;2022-12-18T13:23:19;4.40;;;3.90;;
20142;SDS011;10509;46.476;7.134;2022-12-18T13:25:45;4.17;;;3.50;;
20142;SDS011;10509;46.476;7.134;2022-12-18T13:28:14;5.37;;;4.90;;
20142;SDS011;10509;46.476;7.134;2022-12-18T13:30:51;7.40;;;3.13;;
20142;SDS011;10509;46.476;7.134;2022-12-18T13:43:24;2.57;;;2.37;;
20142;SDS011;10509;46.476;7.134;2022-12-18T13:45:59;3.13;;;2.83;;
20142;SDS011;10509;46.476;7.134;2022-12-18T13:48:26;2.70;;;2.50;;
20142;SDS011;10509;46.476;7.134;2022-12-18T13:50:55;3.53;;;3.23;;
20142;SDS011;10509;46.476;7.134;2022-12-18T13:53:23;5.27;;;4.20;;
20142;SDS011;10509;46.476;7.134;2022-12-18T13:55:50;4.07;;;3.43;;
20142;SDS011;10509;46.476;7.134;2022-12-18T13:58:16;4.20;;;3.80;;
20142;SDS011;10509;46.476;7.134;2022-12-18T14:00:42;6.13;;;4.60;;
20142;SDS011;10509;46.476;7.134;2022-12-18T14:03:25;4.03;;;3.63;;
20142;SDS011;10509;46.476;7.134;2022-12-18T14:05:52;3.27;;;2.73;;
20142;SDS011;10509;46.476;7.134;2022-12-18T14:08:19;3.50;;;3.20;;
20142;SDS011;10509;46.476;7.134;2022-12-18T14:10:46;2.87;;;2.40;;
20142;SDS011;10509;46.476;7.134;2022-12-18T14:13:29;2.03;;;1.80;;
20142;SDS011;10509;46.476;7.134;2022-12-18T14:15:56;2.20;;;2.00;;
20142;SDS011;10509;46.476;7.134;2022-12-18T14:21:15;2.17;;;1.97;;
20142;SDS011;10509;46.476;7.134;2022-12-18T14:23:42;2.37;;;2.17;;
20142;SDS011;10509;46.476;7.134;2022-12-18T14:26:28;2.23;;;1.90;;
20142;SDS011;10509;46.476;7.134;2022-12-18T14:28:55;3.53;;;2.90;;
20142;SDS011;10509;46.476;7.134;2022-12-18T14:31:22;6.70;;;2.67;;
20142;SDS011;10509;46.476;7.134;2022-12-18T14:33:48;5.17;;;2.50;;
20142;SDS011;10509;46.476;7.134;2022-12-18T14:36:19;2.60;;;2.30;;
20142;SDS011;10509;46.476;7.134;2022-12-18T14:38:55;2.73;;;2.50;;
20142;SDS011;10509;46.476;7.134;2022-12-18T14:41:21;2.80;;;2.60;;
20142;SDS011;10509;46.476;7.134;2022-12-18T14:43:49;2.50;;;2.30;;
20142;SDS011;10509;46.476;7.134;2022-12-18T14:46:33;2.60;;;2.40;;
20142;SDS011;10509;46.476;7.134;2022-12-18T14:49:00;4.17;;;3.87;;
20142;SDS011;10509;46.476;7.134;2022-12-18T14:51:31;3.57;;;3.27;;
20142;SDS011;10509;46.476;7.134;2022-12-18T14:53:59;4.57;;;4.17;;
20142;SDS011;10509;46.476;7.134;2022-12-18T14:56:29;6.53;;;5.93;;
20142;SDS011;10509;46.476;7.134;2022-12-18T14:59:03;3.63;;;3.23;;
20142;SDS011;10509;46.476;7.134;2022-12-18T15:01:34;3.30;;;3.00;;
20142;SDS011;10509;46.476;7.134;2022-12-18T15:04:00;17.33;;;15.80;;
20142;SDS011;10509;46.476;7.134;2022-12-18T15:08:54;6.27;;;4.70;;
20142;SDS011;10509;46.476;7.134;2022-12-18T15:11:43;3.87;;;3.53;;
20142;SDS011;10509;46.476;7.134;2022-12-18T15:16:56;5.97;;;4.53;;
20142;SDS011;10509;46.476;7.134;2022-12-18T15:19:31;5.17;;;4.70;;
20142;SDS011;10509;46.476;7.134;2022-12-18T15:21:58;3.70;;;3.40;;
20142;SDS011;10509;46.476;7.134;2022-12-18T15:24:26;3.60;;;3.30;;
20142;SDS011;10509;46.476;7.134;2022-12-18T15:26:53;7.40;;;6.93;;
20142;SDS011;10509;46.476;7.134;2022-12-18T15:29:20;5.10;;;4.37;;
20142;SDS011;10509;46.476;7.134;2022-12-18T15:31:57;6.50;;;6.00;;
20142;SDS011;10509;46.476;7.134;2022-12-18T15:34:23;9.73;;;8.93;;
20142;SDS011;10509;46.476;7.134;2022-12-18T15:36:51;6.80;;;6.20;;
20142;SDS011;10509;46.476;7.134;2022-12-18T15:39:17;6.63;;;6.13;;
20142;SDS011;10509;46.476;7.134;2022-12-18T15:41:43;5.17;;;4.67;;
20142;SDS011;10509;46.476;7.134;2022-12-18T15:44:29;12.30;;;11.20;;
20142;SDS011;10509;46.476;7.134;2022-12-18T15:46:55;5.13;;;4.73;;
20142;SDS011;10509;46.476;7.134;2022-12-18T15:49:21;5.30;;;4.83;;
20142;SDS011;10509;46.476;7.134;2022-12-18T15:51:51;11.60;;;10.70;;
20142;SDS011;10509;46.476;7.134;2022-12-18T15:54:18;7.43;;;6.90;;
20142;SDS011;10509;46.476;7.134;2022-12-18T15:57:04;7.53;;;6.93;;
20142;SDS011;10509;46.476;7.134;2022-12-18T15:59:48;7.50;;;6.80;;
20142;SDS011;10509;46.476;7.134;2022-12-18T16:02:16;7.93;;;7.30;;
20142;SDS011;10509;46.476;7.134;2022-12-18T16:04:42;6.00;;;5.50;;
20142;SDS011;10509;46.476;7.134;2022-12-18T16:07:09;5.50;;;5.00;;
20142;SDS011;10509;46.476;7.134;2022-12-18T16:09:35;8.97;;;8.27;;
20142;SDS011;10509;46.476;7.134;2022-12-18T16:12:01;9.60;;;7.47;;
20142;SDS011;10509;46.476;7.134;2022-12-18T16:14:28;8.23;;;7.53;;
20142;SDS011;10509;46.476;7.134;2022-12-18T16:16:56;8.50;;;7.70;;
20142;SDS011;10509;46.476;7.134;2022-12-18T16:19:22;10.17;;;8.40;;
20142;SDS011;10509;46.476;7.134;2022-12-18T16:21:49;7.23;;;6.67;;
20142;SDS011;10509;46.476;7.134;2022-12-18T16:24:16;5.23;;;4.83;;
20142;SDS011;10509;46.476;7.134;2022-12-18T16:26:43;6.10;;;5.60;;
20142;SDS011;10509;46.476;7.134;2022-12-18T16:29:09;8.17;;;7.67;;
20142;SDS011;10509;46.476;7.134;2022-12-18T16:31:36;5.80;;;5.40;;
20142;SDS011;10509;46.476;7.134;2022-12-18T16:36:50;7.20;;;6.60;;
20142;SDS011;10509;46.476;7.134;2022-12-18T16:39:16;8.17;;;7.47;;
20142;SDS011;10509;46.476;7.134;2022-12-18T16:41:42;5.93;;;5.53;;
20142;SDS011;10509;46.476;7.134;2022-12-18T16:44:09;4.90;;;4.40;;
20142;SDS011;10509;46.476;7.134;2022-12-18T16:46:35;7.63;;;6.93;;
20142;SDS011;10509;46.476;7.134;2022-12-18T16:49:01;6.57;;;6.07;;
20142;SDS011;10509;46.476;7.134;2022-12-18T16:51:27;6.70;;;6.20;;
20142;SDS011;10509;46.476;7.134;2022-12-18T16:53:54;8.20;;;7.60;;
20142;SDS011;10509;46.476;7.134;2022-12-18T16:56:20;7.23;;;6.70;;